Terminal Aerodrome Forecast
Issued by NWS

Home | Current Version | Previous Version | Text Only | Print | Product List | Glossary On
Versions: 1 2 3 4 5 6 7 8 9 10 11 12
000
FTUS44 KOUN 201738
TAFPNC
TAF
KPNC 201738Z 2018/2118 18011KT P6SM BKN080
      TEMPO 2018/2020 -RA
     FM210600 14007KT 5SM BR VCSH BKN025
      TEMPO 2108/2112 -TSRA OVC015CB
     FM211500 32011KT P6SM BKN012=

USA.gov is the U.S. government's official web portal to all federal, state and local government web resources and services.